sensor_id;sensor_type;location;lat;lon;timestamp;temperature;humidity
14192;DHT22;7177;48.572;7.838;2023-07-20T00:00:25;20.30;99.90
14192;DHT22;7177;48.572;7.838;2023-07-20T00:02:51;20.30;99.90
14192;DHT22;7177;48.572;7.838;2023-07-20T00:05:17;20.20;99.90
14192;DHT22;7177;48.572;7.838;2023-07-20T00:07:44;20.20;99.90
14192;DHT22;7177;48.572;7.838;2023-07-20T00:10:09;20.20;99.90
14192;DHT22;7177;48.572;7.838;2023-07-20T00:12:35;20.10;99.90
14192;DHT22;7177;48.572;7.838;2023-07-20T00:15:01;20.10;99.90
14192;DHT22;7177;48.572;7.838;2023-07-20T00:17:26;20.10;99.90
14192;DHT22;7177;48.572;7.838;2023-07-20T00:19:52;20.10;99.90
14192;DHT22;7177;48.572;7.838;2023-07-20T00:22:17;20.00;99.90
14192;DHT22;7177;48.572;7.838;2023-07-20T00:24:43;19.90;99.90
14192;DHT22;7177;48.572;7.838;2023-07-20T00:27:08;19.90;99.90
14192;DHT22;7177;48.572;7.838;2023-07-20T00:29:34;19.80;99.90
14192;DHT22;7177;48.572;7.838;2023-07-20T00:32:00;19.80;99.90
14192;DHT22;7177;48.572;7.838;2023-07-20T00:34:26;19.80;99.90
14192;DHT22;7177;48.572;7.838;2023-07-20T00:36:51;19.80;99.90
14192;DHT22;7177;48.572;7.838;2023-07-20T00:39:17;19.70;99.90
14192;DHT22;7177;48.572;7.838;2023-07-20T00:41:42;19.80;99.90
14192;DHT22;7177;48.572;7.838;2023-07-20T00:44:08;19.80;99.90
14192;DHT22;7177;48.572;7.838;2023-07-20T00:46:33;19.70;99.90
14192;DHT22;7177;48.572;7.838;2023-07-20T00:48:59;19.70;99.90
14192;DHT22;7177;48.572;7.838;2023-07-20T00:51:26;19.70;99.90
14192;DHT22;7177;48.572;7.838;2023-07-20T00:53:52;19.60;99.90
14192;DHT22;7177;48.572;7.838;2023-07-20T00:56:18;19.30;99.90
14192;DHT22;7177;48.572;7.838;2023-07-20T00:58:44;19.40;99.90
14192;DHT22;7177;48.572;7.838;2023-07-20T01:01:10;19.40;99.90
14192;DHT22;7177;48.572;7.838;2023-07-20T01:03:37;19.30;99.90
14192;DHT22;7177;48.572;7.838;2023-07-20T01:06:19;19.30;99.90
14192;DHT22;7177;48.572;7.838;2023-07-20T01:09:02;19.20;99.90
14192;DHT22;7177;48.572;7.838;2023-07-20T01:14:10;18.90;99.90
14192;DHT22;7177;48.572;7.838;2023-07-20T01:16:37;18.80;99.90
14192;DHT22;7177;48.572;7.838;2023-07-20T01:19:02;18.70;99.90
14192;DHT22;7177;48.572;7.838;2023-07-20T01:21:39;18.70;99.90
14192;DHT22;7177;48.572;7.838;2023-07-20T01:29:50;18.50;99.90
14192;DHT22;7177;48.572;7.838;2023-07-20T01:32:23;18.40;99.90
14192;DHT22;7177;48.572;7.838;2023-07-20T01:34:52;18.30;99.90
14192;DHT22;7177;48.572;7.838;2023-07-20T01:37:20;18.20;99.90
14192;DHT22;7177;48.572;7.838;2023-07-20T01:39:50;18.10;99.90
14192;DHT22;7177;48.572;7.838;2023-07-20T01:42:16;18.00;99.90
14192;DHT22;7177;48.572;7.838;2023-07-20T01:44:42;17.90;99.90
14192;DHT22;7177;48.572;7.838;2023-07-20T01:47:08;17.80;99.90
14192;DHT22;7177;48.572;7.838;2023-07-20T01:49:33;17.80;99.90
14192;DHT22;7177;48.572;7.838;2023-07-20T01:51:59;17.80;99.90
14192;DHT22;7177;48.572;7.838;2023-07-20T01:54:24;17.90;99.90
14192;DHT22;7177;48.572;7.838;2023-07-20T01:56:50;17.80;99.90
14192;DHT22;7177;48.572;7.838;2023-07-20T01:59:15;17.80;99.90
14192;DHT22;7177;48.572;7.838;2023-07-20T02:01:41;17.70;99.90
14192;DHT22;7177;48.572;7.838;2023-07-20T02:04:06;17.70;99.90
14192;DHT22;7177;48.572;7.838;2023-07-20T02:06:32;17.70;99.90
14192;DHT22;7177;48.572;7.838;2023-07-20T02:08:57;17.70;99.90
14192;DHT22;7177;48.572;7.838;2023-07-20T02:11:23;17.80;99.90
14192;DHT22;7177;48.572;7.838;2023-07-20T02:13:48;17.80;99.90
14192;DHT22;7177;48.572;7.838;2023-07-20T02:16:14;17.90;99.90
14192;DHT22;7177;48.572;7.838;2023-07-20T02:18:39;17.90;99.90
14192;DHT22;7177;48.572;7.838;2023-07-20T02:21:05;17.90;99.90
14192;DHT22;7177;48.572;7.838;2023-07-20T02:23:30;17.90;99.90
14192;DHT22;7177;48.572;7.838;2023-07-20T02:25:56;17.90;99.90
14192;DHT22;7177;48.572;7.838;2023-07-20T02:28:21;17.70;99.90
14192;DHT22;7177;48.572;7.838;2023-07-20T02:30:47;17.70;99.90
14192;DHT22;7177;48.572;7.838;2023-07-20T02:33:12;17.70;99.90
14192;DHT22;7177;48.572;7.838;2023-07-20T02:35:38;17.60;99.90
14192;DHT22;7177;48.572;7.838;2023-07-20T02:38:03;17.60;99.90
14192;DHT22;7177;48.572;7.838;2023-07-20T02:40:29;17.60;99.90
14192;DHT22;7177;48.572;7.838;2023-07-20T02:42:54;17.60;99.90
14192;DHT22;7177;48.572;7.838;2023-07-20T02:45:20;17.60;99.90
14192;DHT22;7177;48.572;7.838;2023-07-20T02:47:45;17.50;99.90
14192;DHT22;7177;48.572;7.838;2023-07-20T02:50:11;17.50;99.90
14192;DHT22;7177;48.572;7.838;2023-07-20T02:52:39;17.50;99.90
14192;DHT22;7177;48.572;7.838;2023-07-20T02:55:04;17.40;99.90
14192;DHT22;7177;48.572;7.838;2023-07-20T02:57:30;17.30;99.90
14192;DHT22;7177;48.572;7.838;2023-07-20T02:59:55;17.10;99.90
14192;DHT22;7177;48.572;7.838;2023-07-20T03:02:21;17.10;99.90
14192;DHT22;7177;48.572;7.838;2023-07-20T03:04:46;17.10;99.90
14192;DHT22;7177;48.572;7.838;2023-07-20T03:07:12;17.10;99.90
14192;DHT22;7177;48.572;7.838;2023-07-20T03:09:38;17.10;99.90
14192;DHT22;7177;48.572;7.838;2023-07-20T03:12:03;17.20;99.90
14192;DHT22;7177;48.572;7.838;2023-07-20T03:14:30;17.10;99.90
14192;DHT22;7177;48.572;7.838;2023-07-20T03:16:55;17.20;99.90
14192;DHT22;7177;48.572;7.838;2023-07-20T03:19:21;17.30;99.90
14192;DHT22;7177;48.572;7.838;2023-07-20T03:21:46;17.40;99.90
14192;DHT22;7177;48.572;7.838;2023-07-20T03:24:12;17.40;99.90
14192;DHT22;7177;48.572;7.838;2023-07-20T03:26:37;17.40;99.90
14192;DHT22;7177;48.572;7.838;2023-07-20T03:29:04;17.40;99.90
14192;DHT22;7177;48.572;7.838;2023-07-20T03:31:30;17.40;99.90
14192;DHT22;7177;48.572;7.838;2023-07-20T03:33:55;17.50;99.90
14192;DHT22;7177;48.572;7.838;2023-07-20T03:36:21;17.50;99.90
14192;DHT22;7177;48.572;7.838;2023-07-20T03:38:47;17.50;99.90
14192;DHT22;7177;48.572;7.838;2023-07-20T03:41:12;17.50;99.90
14192;DHT22;7177;48.572;7.838;2023-07-20T03:43:40;17.50;99.90
14192;DHT22;7177;48.572;7.838;2023-07-20T03:46:05;17.80;99.90
14192;DHT22;7177;48.572;7.838;2023-07-20T03:48:32;17.70;99.90
14192;DHT22;7177;48.572;7.838;2023-07-20T03:50:58;17.60;99.90
14192;DHT22;7177;48.572;7.838;2023-07-20T03:53:24;17.60;99.90
14192;DHT22;7177;48.572;7.838;2023-07-20T03:55:51;17.50;99.90
14192;DHT22;7177;48.572;7.838;2023-07-20T03:58:17;17.50;99.90
14192;DHT22;7177;48.572;7.838;2023-07-20T04:00:45;17.50;99.90
14192;DHT22;7177;48.572;7.838;2023-07-20T04:03:11;17.60;99.90
14192;DHT22;7177;48.572;7.838;2023-07-20T04:05:36;17.60;99.90
14192;DHT22;7177;48.572;7.838;2023-07-20T04:08:02;17.70;99.90
14192;DHT22;7177;48.572;7.838;2023-07-20T04:10:27;17.70;99.90
14192;DHT22;7177;48.572;7.838;2023-07-20T04:12:53;17.70;99.90
14192;DHT22;7177;48.572;7.838;2023-07-20T04:15:18;18.10;99.90
14192;DHT22;7177;48.572;7.838;2023-07-20T04:17:45;18.00;99.90
14192;DHT22;7177;48.572;7.838;2023-07-20T04:20:11;18.20;99.90
14192;DHT22;7177;48.572;7.838;2023-07-20T04:22:36;18.40;99.90
14192;DHT22;7177;48.572;7.838;2023-07-20T04:25:03;18.50;99.90
14192;DHT22;7177;48.572;7.838;2023-07-20T04:27:29;18.50;99.90
14192;DHT22;7177;48.572;7.838;2023-07-20T04:29:57;18.30;99.90
14192;DHT22;7177;48.572;7.838;2023-07-20T04:32:23;18.10;99.90
14192;DHT22;7177;48.572;7.838;2023-07-20T04:34:48;18.10;99.90
14192;DHT22;7177;48.572;7.838;2023-07-20T04:39:40;18.30;99.90
14192;DHT22;7177;48.572;7.838;2023-07-20T04:42:06;18.40;99.90
14192;DHT22;7177;48.572;7.838;2023-07-20T04:44:31;18.50;99.90
14192;DHT22;7177;48.572;7.838;2023-07-20T04:46:57;18.60;99.90
14192;DHT22;7177;48.572;7.838;2023-07-20T04:49:22;18.60;99.90
14192;DHT22;7177;48.572;7.838;2023-07-20T04:51:48;18.60;99.90
14192;DHT22;7177;48.572;7.838;2023-07-20T04:54:13;18.40;99.90
14192;DHT22;7177;48.572;7.838;2023-07-20T04:56:39;18.10;99.90
14192;DHT22;7177;48.572;7.838;2023-07-20T04:59:05;18.10;99.90
14192;DHT22;7177;48.572;7.838;2023-07-20T05:01:30;18.10;99.90
14192;DHT22;7177;48.572;7.838;2023-07-20T05:03:56;18.20;99.90
14192;DHT22;7177;48.572;7.838;2023-07-20T05:06:21;18.20;99.90
14192;DHT22;7177;48.572;7.838;2023-07-20T05:08:47;18.30;99.90
14192;DHT22;7177;48.572;7.838;2023-07-20T05:11:12;18.40;99.90
14192;DHT22;7177;48.572;7.838;2023-07-20T05:13:38;18.50;99.90
14192;DHT22;7177;48.572;7.838;2023-07-20T05:16:03;18.60;99.90
14192;DHT22;7177;48.572;7.838;2023-07-20T05:18:29;18.70;99.90
14192;DHT22;7177;48.572;7.838;2023-07-20T05:20:55;18.80;99.90
14192;DHT22;7177;48.572;7.838;2023-07-20T05:23:21;18.90;99.90
14192;DHT22;7177;48.572;7.838;2023-07-20T05:25:47;19.00;99.90
14192;DHT22;7177;48.572;7.838;2023-07-20T05:28:13;19.10;99.90
14192;DHT22;7177;48.572;7.838;2023-07-20T05:30:40;19.10;99.90
14192;DHT22;7177;48.572;7.838;2023-07-20T05:33:05;19.20;99.90
14192;DHT22;7177;48.572;7.838;2023-07-20T05:35:31;19.20;99.90
14192;DHT22;7177;48.572;7.838;2023-07-20T05:37:56;19.20;99.90
14192;DHT22;7177;48.572;7.838;2023-07-20T05:40:22;19.30;99.90
14192;DHT22;7177;48.572;7.838;2023-07-20T05:42:48;19.40;99.90
14192;DHT22;7177;48.572;7.838;2023-07-20T05:45:17;19.50;99.90
14192;DHT22;7177;48.572;7.838;2023-07-20T05:47:43;19.60;99.90
14192;DHT22;7177;48.572;7.838;2023-07-20T05:50:09;19.70;99.90
14192;DHT22;7177;48.572;7.838;2023-07-20T05:52:34;19.80;99.90
14192;DHT22;7177;48.572;7.838;2023-07-20T05:55:00;19.70;99.90
14192;DHT22;7177;48.572;7.838;2023-07-20T05:57:25;19.60;99.90
14192;DHT22;7177;48.572;7.838;2023-07-20T05:59:51;19.80;99.90
14192;DHT22;7177;48.572;7.838;2023-07-20T06:02:16;19.90;99.90
14192;DHT22;7177;48.572;7.838;2023-07-20T06:04:42;20.00;99.90
14192;DHT22;7177;48.572;7.838;2023-07-20T06:07:07;20.30;99.90
14192;DHT22;7177;48.572;7.838;2023-07-20T06:09:33;20.50;99.90
14192;DHT22;7177;48.572;7.838;2023-07-20T06:11:59;20.90;99.90
14192;DHT22;7177;48.572;7.838;2023-07-20T06:14:25;21.20;99.90
14192;DHT22;7177;48.572;7.838;2023-07-20T06:16:50;21.50;99.90
14192;DHT22;7177;48.572;7.838;2023-07-20T06:19:16;21.90;99.90
14192;DHT22;7177;48.572;7.838;2023-07-20T06:21:41;22.20;99.90
14192;DHT22;7177;48.572;7.838;2023-07-20T06:24:07;22.40;99.90
14192;DHT22;7177;48.572;7.838;2023-07-20T06:26:33;22.60;99.90
14192;DHT22;7177;48.572;7.838;2023-07-20T06:29:07;22.50;99.90
14192;DHT22;7177;48.572;7.838;2023-07-20T06:31:34;22.60;99.90
14192;DHT22;7177;48.572;7.838;2023-07-20T06:33:59;22.80;99.90
14192;DHT22;7177;48.572;7.838;2023-07-20T06:36:25;22.80;99.90
14192;DHT22;7177;48.572;7.838;2023-07-20T06:38:54;22.60;99.90
14192;DHT22;7177;48.572;7.838;2023-07-20T06:41:20;22.80;99.90
14192;DHT22;7177;48.572;7.838;2023-07-20T06:43:45;23.00;99.90
14192;DHT22;7177;48.572;7.838;2023-07-20T06:46:11;23.10;99.90
14192;DHT22;7177;48.572;7.838;2023-07-20T06:48:37;23.20;99.90
14192;DHT22;7177;48.572;7.838;2023-07-20T06:51:02;23.40;99.90
14192;DHT22;7177;48.572;7.838;2023-07-20T06:53:28;23.60;99.90
14192;DHT22;7177;48.572;7.838;2023-07-20T06:55:54;23.70;99.90
14192;DHT22;7177;48.572;7.838;2023-07-20T06:58:19;23.80;99.90
14192;DHT22;7177;48.572;7.838;2023-07-20T07:00:46;23.70;99.90
14192;DHT22;7177;48.572;7.838;2023-07-20T07:03:12;23.70;99.90
14192;DHT22;7177;48.572;7.838;2023-07-20T07:05:37;23.80;99.90
14192;DHT22;7177;48.572;7.838;2023-07-20T07:08:06;23.90;99.90
14192;DHT22;7177;48.572;7.838;2023-07-20T07:10:32;24.10;99.90
14192;DHT22;7177;48.572;7.838;2023-07-20T07:12:58;24.40;99.90
14192;DHT22;7177;48.572;7.838;2023-07-20T07:15:23;24.80;99.90
14192;DHT22;7177;48.572;7.838;2023-07-20T07:17:49;25.00;99.90
14192;DHT22;7177;48.572;7.838;2023-07-20T07:20:16;25.00;99.90
14192;DHT22;7177;48.572;7.838;2023-07-20T07:22:42;25.10;99.90
14192;DHT22;7177;48.572;7.838;2023-07-20T07:25:09;25.30;99.90
14192;DHT22;7177;48.572;7.838;2023-07-20T07:27:35;25.30;99.90
14192;DHT22;7177;48.572;7.838;2023-07-20T07:30:02;25.60;99.90
14192;DHT22;7177;48.572;7.838;2023-07-20T07:32:30;25.50;99.90
14192;DHT22;7177;48.572;7.838;2023-07-20T07:34:56;25.60;99.90
14192;DHT22;7177;48.572;7.838;2023-07-20T07:37:23;25.60;99.90
14192;DHT22;7177;48.572;7.838;2023-07-20T07:39:49;25.80;99.90
14192;DHT22;7177;48.572;7.838;2023-07-20T07:42:14;26.00;99.90
14192;DHT22;7177;48.572;7.838;2023-07-20T07:44:40;26.10;99.90
14192;DHT22;7177;48.572;7.838;2023-07-20T07:47:06;26.20;99.90
14192;DHT22;7177;48.572;7.838;2023-07-20T07:49:31;26.00;99.90
14192;DHT22;7177;48.572;7.838;2023-07-20T07:51:57;25.90;99.90
14192;DHT22;7177;48.572;7.838;2023-07-20T07:54:22;25.90;99.90
14192;DHT22;7177;48.572;7.838;2023-07-20T07:56:48;26.10;99.90
14192;DHT22;7177;48.572;7.838;2023-07-20T07:59:14;26.30;99.90
14192;DHT22;7177;48.572;7.838;2023-07-20T08:01:39;26.80;99.90
14192;DHT22;7177;48.572;7.838;2023-07-20T08:04:05;27.00;99.30
14192;DHT22;7177;48.572;7.838;2023-07-20T08:06:30;26.90;98.80
14192;DHT22;7177;48.572;7.838;2023-07-20T08:08:57;26.70;97.80
14192;DHT22;7177;48.572;7.838;2023-07-20T08:11:23;26.30;98.40
14192;DHT22;7177;48.572;7.838;2023-07-20T08:13:49;25.90;99.30
14192;DHT22;7177;48.572;7.838;2023-07-20T08:16:14;25.60;98.80
14192;DHT22;7177;48.572;7.838;2023-07-20T08:18:40;25.50;99.90
14192;DHT22;7177;48.572;7.838;2023-07-20T08:21:05;25.50;99.90
14192;DHT22;7177;48.572;7.838;2023-07-20T08:23:31;25.30;99.90
14192;DHT22;7177;48.572;7.838;2023-07-20T08:25:56;25.20;99.90
14192;DHT22;7177;48.572;7.838;2023-07-20T08:28:22;25.30;99.90
14192;DHT22;7177;48.572;7.838;2023-07-20T08:30:49;25.60;99.90
14192;DHT22;7177;48.572;7.838;2023-07-20T08:33:15;26.10;99.80
14192;DHT22;7177;48.572;7.838;2023-07-20T08:35:41;26.80;97.70
14192;DHT22;7177;48.572;7.838;2023-07-20T08:38:07;27.10;96.10
14192;DHT22;7177;48.572;7.838;2023-07-20T08:40:34;27.60;96.50
14192;DHT22;7177;48.572;7.838;2023-07-20T08:43:04;28.00;94.60
14192;DHT22;7177;48.572;7.838;2023-07-20T08:45:33;28.30;94.70
14192;DHT22;7177;48.572;7.838;2023-07-20T08:48:00;28.30;94.20
14192;DHT22;7177;48.572;7.838;2023-07-20T08:50:28;28.50;94.40
14192;DHT22;7177;48.572;7.838;2023-07-20T08:52:57;28.70;91.60
14192;DHT22;7177;48.572;7.838;2023-07-20T08:55:24;28.50;90.50
14192;DHT22;7177;48.572;7.838;2023-07-20T08:57:53;28.50;91.20
14192;DHT22;7177;48.572;7.838;2023-07-20T09:00:20;28.70;91.10
14192;DHT22;7177;48.572;7.838;2023-07-20T09:02:51;29.20;90.80
14192;DHT22;7177;48.572;7.838;2023-07-20T09:05:17;29.60;89.40
14192;DHT22;7177;48.572;7.838;2023-07-20T09:07:43;29.60;89.20
14192;DHT22;7177;48.572;7.838;2023-07-20T09:10:09;29.20;89.60
14192;DHT22;7177;48.572;7.838;2023-07-20T09:12:37;28.90;87.50
14192;DHT22;7177;48.572;7.838;2023-07-20T09:15:04;28.80;88.30
14192;DHT22;7177;48.572;7.838;2023-07-20T09:17:30;29.10;85.80
14192;DHT22;7177;48.572;7.838;2023-07-20T09:19:55;29.60;85.00
14192;DHT22;7177;48.572;7.838;2023-07-20T09:22:21;29.80;83.70
14192;DHT22;7177;48.572;7.838;2023-07-20T09:24:46;29.90;80.70
14192;DHT22;7177;48.572;7.838;2023-07-20T09:27:12;29.70;78.70
14192;DHT22;7177;48.572;7.838;2023-07-20T09:29:51;29.70;80.80
14192;DHT22;7177;48.572;7.838;2023-07-20T09:32:20;30.00;81.20
14192;DHT22;7177;48.572;7.838;2023-07-20T09:34:46;30.50;79.50
14192;DHT22;7177;48.572;7.838;2023-07-20T09:37:12;30.70;79.10
14192;DHT22;7177;48.572;7.838;2023-07-20T09:39:45;30.40;78.60
14192;DHT22;7177;48.572;7.838;2023-07-20T09:42:14;29.50;79.20
14192;DHT22;7177;48.572;7.838;2023-07-20T09:44:42;28.90;80.60
14192;DHT22;7177;48.572;7.838;2023-07-20T09:47:08;28.30;80.30
14192;DHT22;7177;48.572;7.838;2023-07-20T09:49:42;27.90;81.20
14192;DHT22;7177;48.572;7.838;2023-07-20T09:52:11;27.50;84.00
14192;DHT22;7177;48.572;7.838;2023-07-20T09:54:40;27.20;85.20
14192;DHT22;7177;48.572;7.838;2023-07-20T09:57:09;27.00;85.10
14192;DHT22;7177;48.572;7.838;2023-07-20T09:59:35;27.00;84.00
14192;DHT22;7177;48.572;7.838;2023-07-20T10:02:02;27.60;83.90
14192;DHT22;7177;48.572;7.838;2023-07-20T10:04:30;27.60;85.90
14192;DHT22;7177;48.572;7.838;2023-07-20T10:07:00;27.80;85.20
14192;DHT22;7177;48.572;7.838;2023-07-20T10:09:29;27.90;84.10
14192;DHT22;7177;48.572;7.838;2023-07-20T10:11:56;27.80;83.30
14192;DHT22;7177;48.572;7.838;2023-07-20T10:14:24;27.90;84.70
14192;DHT22;7177;48.572;7.838;2023-07-20T10:16:51;28.00;82.70
14192;DHT22;7177;48.572;7.838;2023-07-20T10:19:23;27.70;83.30
14192;DHT22;7177;48.572;7.838;2023-07-20T10:21:56;27.60;81.60
14192;DHT22;7177;48.572;7.838;2023-07-20T10:24:23;26.60;86.30
14192;DHT22;7177;48.572;7.838;2023-07-20T10:26:49;26.80;87.40
14192;DHT22;7177;48.572;7.838;2023-07-20T10:29:15;26.90;84.50
14192;DHT22;7177;48.572;7.838;2023-07-20T10:31:42;27.40;83.30
14192;DHT22;7177;48.572;7.838;2023-07-20T10:34:08;28.20;85.20
14192;DHT22;7177;48.572;7.838;2023-07-20T10:36:43;28.40;82.10
14192;DHT22;7177;48.572;7.838;2023-07-20T10:39:22;28.50;79.50
14192;DHT22;7177;48.572;7.838;2023-07-20T10:41:49;28.30;80.50
14192;DHT22;7177;48.572;7.838;2023-07-20T10:44:19;28.10;79.90
14192;DHT22;7177;48.572;7.838;2023-07-20T10:46:45;28.50;78.90
14192;DHT22;7177;48.572;7.838;2023-07-20T10:49:12;29.00;75.40
14192;DHT22;7177;48.572;7.838;2023-07-20T10:51:43;28.80;74.00
14192;DHT22;7177;48.572;7.838;2023-07-20T10:56:56;28.60;74.30
14192;DHT22;7177;48.572;7.838;2023-07-20T11:01:59;28.50;73.00
14192;DHT22;7177;48.572;7.838;2023-07-20T11:04:40;28.00;75.40
14192;DHT22;7177;48.572;7.838;2023-07-20T11:07:06;28.20;77.50
14192;DHT22;7177;48.572;7.838;2023-07-20T11:09:36;28.90;75.20
14192;DHT22;7177;48.572;7.838;2023-07-20T11:12:16;29.20;72.20
14192;DHT22;7177;48.572;7.838;2023-07-20T11:15:09;29.00;73.50
14192;DHT22;7177;48.572;7.838;2023-07-20T11:17:34;29.10;72.00
14192;DHT22;7177;48.572;7.838;2023-07-20T11:20:02;29.10;75.10
14192;DHT22;7177;48.572;7.838;2023-07-20T11:22:30;28.80;74.70
14192;DHT22;7177;48.572;7.838;2023-07-20T11:24:57;29.10;74.40
14192;DHT22;7177;48.572;7.838;2023-07-20T11:27:22;29.60;73.90
14192;DHT22;7177;48.572;7.838;2023-07-20T11:29:48;29.60;73.00
14192;DHT22;7177;48.572;7.838;2023-07-20T11:32:20;30.00;72.90
14192;DHT22;7177;48.572;7.838;2023-07-20T11:34:47;30.50;69.60
14192;DHT22;7177;48.572;7.838;2023-07-20T11:37:13;30.30;69.30
14192;DHT22;7177;48.572;7.838;2023-07-20T11:39:39;30.00;70.80
14192;DHT22;7177;48.572;7.838;2023-07-20T11:42:05;29.60;69.30
14192;DHT22;7177;48.572;7.838;2023-07-20T11:44:31;29.70;70.40
14192;DHT22;7177;48.572;7.838;2023-07-20T11:47:04;30.30;69.90
14192;DHT22;7177;48.572;7.838;2023-07-20T11:49:34;30.30;66.60
14192;DHT22;7177;48.572;7.838;2023-07-20T11:52:00;29.90;66.30
14192;DHT22;7177;48.572;7.838;2023-07-20T11:54:26;29.70;67.80
14192;DHT22;7177;48.572;7.838;2023-07-20T11:56:55;30.20;66.50
14192;DHT22;7177;48.572;7.838;2023-07-20T11:59:21;31.10;64.60
14192;DHT22;7177;48.572;7.838;2023-07-20T12:01:47;31.90;66.00
14192;DHT22;7177;48.572;7.838;2023-07-20T12:04:12;32.10;62.20
14192;DHT22;7177;48.572;7.838;2023-07-20T12:06:38;32.30;61.30
14192;DHT22;7177;48.572;7.838;2023-07-20T12:09:04;32.20;59.70
14192;DHT22;7177;48.572;7.838;2023-07-20T12:11:37;32.20;58.40
14192;DHT22;7177;48.572;7.838;2023-07-20T12:14:04;32.80;57.30
14192;DHT22;7177;48.572;7.838;2023-07-20T12:16:31;33.10;57.20
14192;DHT22;7177;48.572;7.838;2023-07-20T12:19:01;33.20;54.80
14192;DHT22;7177;48.572;7.838;2023-07-20T12:21:28;32.90;54.60
14192;DHT22;7177;48.572;7.838;2023-07-20T12:23:56;32.90;56.00
14192;DHT22;7177;48.572;7.838;2023-07-20T12:26:23;32.40;57.20
14192;DHT22;7177;48.572;7.838;2023-07-20T12:28:49;31.40;59.30
14192;DHT22;7177;48.572;7.838;2023-07-20T12:31:15;30.60;59.10
14192;DHT22;7177;48.572;7.838;2023-07-20T12:33:41;30.00;60.00
14192;DHT22;7177;48.572;7.838;2023-07-20T12:36:08;29.60;60.10
14192;DHT22;7177;48.572;7.838;2023-07-20T12:38:34;29.40;61.40
14192;DHT22;7177;48.572;7.838;2023-07-20T12:41:01;29.20;59.80
14192;DHT22;7177;48.572;7.838;2023-07-20T12:43:27;29.70;58.80
14192;DHT22;7177;48.572;7.838;2023-07-20T12:45:53;29.90;57.40
14192;DHT22;7177;48.572;7.838;2023-07-20T12:48:18;29.60;57.60
14192;DHT22;7177;48.572;7.838;2023-07-20T12:50:44;29.30;58.00
14192;DHT22;7177;48.572;7.838;2023-07-20T12:53:09;28.90;59.40
14192;DHT22;7177;48.572;7.838;2023-07-20T12:55:35;28.50;59.80
14192;DHT22;7177;48.572;7.838;2023-07-20T12:58:01;28.20;59.40
14192;DHT22;7177;48.572;7.838;2023-07-20T13:00:26;28.40;60.40
14192;DHT22;7177;48.572;7.838;2023-07-20T13:02:52;28.60;61.50
14192;DHT22;7177;48.572;7.838;2023-07-20T13:05:17;28.60;63.80
14192;DHT22;7177;48.572;7.838;2023-07-20T13:07:43;28.60;62.50
14192;DHT22;7177;48.572;7.838;2023-07-20T13:10:10;29.10;64.40
14192;DHT22;7177;48.572;7.838;2023-07-20T13:12:37;29.60;61.20
14192;DHT22;7177;48.572;7.838;2023-07-20T13:15:04;30.20;58.90
14192;DHT22;7177;48.572;7.838;2023-07-20T13:17:37;30.70;59.00
14192;DHT22;7177;48.572;7.838;2023-07-20T13:20:05;30.70;58.60
14192;DHT22;7177;48.572;7.838;2023-07-20T13:22:35;30.80;59.20
14192;DHT22;7177;48.572;7.838;2023-07-20T13:25:01;31.00;61.30
14192;DHT22;7177;48.572;7.838;2023-07-20T13:27:27;31.20;57.00
14192;DHT22;7177;48.572;7.838;2023-07-20T13:29:53;30.90;57.20
14192;DHT22;7177;48.572;7.838;2023-07-20T13:32:18;30.30;57.70
14192;DHT22;7177;48.572;7.838;2023-07-20T13:34:44;30.00;56.90
14192;DHT22;7177;48.572;7.838;2023-07-20T13:37:10;29.70;59.70
14192;DHT22;7177;48.572;7.838;2023-07-20T13:39:37;29.40;57.80
14192;DHT22;7177;48.572;7.838;2023-07-20T13:42:03;29.10;59.40
14192;DHT22;7177;48.572;7.838;2023-07-20T13:44:33;28.80;59.90
14192;DHT22;7177;48.572;7.838;2023-07-20T13:46:59;28.70;58.90
14192;DHT22;7177;48.572;7.838;2023-07-20T13:49:24;28.90;59.30
14192;DHT22;7177;48.572;7.838;2023-07-20T13:51:50;29.10;59.70
14192;DHT22;7177;48.572;7.838;2023-07-20T13:54:15;29.60;59.70
14192;DHT22;7177;48.572;7.838;2023-07-20T13:56:41;29.50;59.90
14192;DHT22;7177;48.572;7.838;2023-07-20T13:59:07;29.70;58.50
14192;DHT22;7177;48.572;7.838;2023-07-20T14:01:32;29.90;57.20
14192;DHT22;7177;48.572;7.838;2023-07-20T14:04:00;29.90;57.80
14192;DHT22;7177;48.572;7.838;2023-07-20T14:06:27;29.00;58.00
14192;DHT22;7177;48.572;7.838;2023-07-20T14:08:53;28.90;58.00
14192;DHT22;7177;48.572;7.838;2023-07-20T14:11:18;28.50;58.70
14192;DHT22;7177;48.572;7.838;2023-07-20T14:13:44;28.30;58.20
14192;DHT22;7177;48.572;7.838;2023-07-20T14:16:10;28.00;60.80
14192;DHT22;7177;48.572;7.838;2023-07-20T14:18:36;29.10;61.50
14192;DHT22;7177;48.572;7.838;2023-07-20T14:21:01;27.90;62.70
14192;DHT22;7177;48.572;7.838;2023-07-20T14:23:29;27.90;59.50
14192;DHT22;7177;48.572;7.838;2023-07-20T14:25:54;27.80;61.70
14192;DHT22;7177;48.572;7.838;2023-07-20T14:28:20;27.90;63.30
14192;DHT22;7177;48.572;7.838;2023-07-20T14:30:45;28.20;62.10
14192;DHT22;7177;48.572;7.838;2023-07-20T14:33:11;28.90;59.20
14192;DHT22;7177;48.572;7.838;2023-07-20T14:35:36;29.50;57.50
14192;DHT22;7177;48.572;7.838;2023-07-20T14:38:02;29.40;57.40
14192;DHT22;7177;48.572;7.838;2023-07-20T14:40:28;29.20;59.00
14192;DHT22;7177;48.572;7.838;2023-07-20T14:42:55;29.40;57.30
14192;DHT22;7177;48.572;7.838;2023-07-20T14:45:21;29.30;60.90
14192;DHT22;7177;48.572;7.838;2023-07-20T14:47:46;29.20;58.50
14192;DHT22;7177;48.572;7.838;2023-07-20T14:50:14;29.10;58.10
14192;DHT22;7177;48.572;7.838;2023-07-20T14:52:39;29.10;58.90
14192;DHT22;7177;48.572;7.838;2023-07-20T14:55:05;29.40;58.70
14192;DHT22;7177;48.572;7.838;2023-07-20T14:57:31;29.60;58.80
14192;DHT22;7177;48.572;7.838;2023-07-20T14:59:56;29.30;59.70
14192;DHT22;7177;48.572;7.838;2023-07-20T15:02:22;29.10;57.70
14192;DHT22;7177;48.572;7.838;2023-07-20T15:04:49;29.20;58.20
14192;DHT22;7177;48.572;7.838;2023-07-20T15:07:17;29.60;57.60
14192;DHT22;7177;48.572;7.838;2023-07-20T15:09:44;29.40;56.80
14192;DHT22;7177;48.572;7.838;2023-07-20T15:12:09;29.90;59.00
14192;DHT22;7177;48.572;7.838;2023-07-20T15:14:35;29.90;57.40
14192;DHT22;7177;48.572;7.838;2023-07-20T15:17:01;29.80;56.70
14192;DHT22;7177;48.572;7.838;2023-07-20T15:19:26;29.50;57.80
14192;DHT22;7177;48.572;7.838;2023-07-20T15:21:52;29.40;58.60
14192;DHT22;7177;48.572;7.838;2023-07-20T15:24:17;29.40;59.60
14192;DHT22;7177;48.572;7.838;2023-07-20T15:26:43;29.30;58.20
14192;DHT22;7177;48.572;7.838;2023-07-20T15:29:08;28.90;59.80
14192;DHT22;7177;48.572;7.838;2023-07-20T15:31:34;28.60;59.60
14192;DHT22;7177;48.572;7.838;2023-07-20T15:34:01;28.30;58.80
14192;DHT22;7177;48.572;7.838;2023-07-20T15:36:26;28.20;59.40
14192;DHT22;7177;48.572;7.838;2023-07-20T15:38:52;28.30;59.90
14192;DHT22;7177;48.572;7.838;2023-07-20T15:41:18;28.70;59.90
14192;DHT22;7177;48.572;7.838;2023-07-20T15:43:43;28.80;58.40
14192;DHT22;7177;48.572;7.838;2023-07-20T15:49:07;29.80;57.70
14192;DHT22;7177;48.572;7.838;2023-07-20T15:51:34;30.00;57.90
14192;DHT22;7177;48.572;7.838;2023-07-20T15:54:02;30.10;55.70
14192;DHT22;7177;48.572;7.838;2023-07-20T15:56:27;30.40;55.90
14192;DHT22;7177;48.572;7.838;2023-07-20T15:58:53;30.70;56.70